Cedarhurst, New York
Current Conditions -  °F | °C
As of 5:51 AM on Wednesday 26 Nov 2014 (Local Time) from KJFK Reporting Station
Light Rain Light Rain  
Wind Chill: 43°   Ceiling: 7000
Heat Index: 48°   Visibility: 10mi
Dew Point: 30°   Wind: 13mph
Humidity: 50%   Direction: 20°NNE
Pressure: 30.12"   Gusts: NA
Location:  40.62°N, 73.72°W
Report Text: KJFK 261051Z 02011KT 10SM -RA OVC070 09/M01 A3012 RMK AO2 RAB0952 SLP199 P0000 T00891011 $
Loading
Personal Weather Stations






























Interactive Weather Map New forecast layout! Learn more

10-Day Weather Forecast

Advertisements
Track Severe Weather on mobile